Friday, May 25, 2018, 12:55 PM EDT
Back to Local

KLBE, Latrobe / Westmorland

Location: Latrobe, PA, United States Lat: 40.283
Local Time: 12:55 PM EDT (16:55 GMT) Lon: -79.4
Time Zone: US/Eastern Elev: 1184 ft

Show me the last for .
Show Decoded

2018-05-25 11:45 METAR KLBE 251545Z 24010KT 10SM FEW034 25/18 A3004 =
2018-05-25 10:50 METAR KLBE 251450Z 24010KT 10SM SKC 24/17 A3006 =
2018-05-25 09:55 METAR KLBE 251355Z 24012KT 10SM SKC 24/17 A3007 =
2018-05-25 08:50 METAR KLBE 251250Z 00000KT 10SM SKC 19/14 A3008 =
2018-05-25 07:55 METAR KLBE 251155Z 00000KT 10SM SKC 15/14 A3009 =
2018-05-25 06:45 METAR KLBE 251045Z 00000KT 10SM FEW250 12/12 A3009 =
2018-05-25 05:55 METAR KLBE 250955Z AUTO 00000KT 10SM FEW060 13/13 A3009 RMK AO2 =
2018-05-25 05:35 METAR KLBE 250935Z AUTO 00000KT 10SM BKN060 12/12 A3010 RMK AO2 =
2018-05-25 05:15 METAR KLBE 250915Z AUTO 00000KT 10SM SCT060 12/12 A3009 RMK AO2 =
2018-05-25 04:55 METAR KLBE 250855Z AUTO 00000KT 10SM CLR 12/12 A3010 RMK AO2 =
2018-05-25 04:35 METAR KLBE 250835Z AUTO 00000KT 10SM CLR 12/12 A3010 RMK AO2 =
2018-05-25 04:15 METAR KLBE 250815Z AUTO 00000KT 10SM CLR 12/12 A3010 RMK AO2 =
2018-05-25 03:55 METAR KLBE 250755Z AUTO 00000KT 10SM CLR 12/12 A3010 RMK AO2 =
2018-05-25 03:35 METAR KLBE 250735Z AUTO 00000KT 10SM CLR 13/13 A3010 RMK AO2 =
2018-05-25 03:15 METAR KLBE 250715Z AUTO 00000KT 10SM CLR 13/13 A3010 RMK AO2 =
2018-05-25 02:55 METAR KLBE 250655Z AUTO 00000KT 10SM CLR 13/13 A3010 RMK AO2 =
2018-05-25 02:35 METAR KLBE 250635Z AUTO 00000KT 10SM CLR 13/13 A3011 RMK AO2 =
2018-05-25 02:15 METAR KLBE 250615Z AUTO 00000KT 10SM CLR 13/13 A3011 RMK AO2 =
2018-05-25 01:55 METAR KLBE 250555Z AUTO 00000KT 10SM CLR 13/13 A3011 RMK AO2 =
2018-05-25 01:35 METAR KLBE 250535Z AUTO 00000KT 10SM CLR 14/13 A3012 RMK AO2 =
2018-05-25 01:15 METAR KLBE 250515Z AUTO 00000KT 10SM CLR 14/13 A3012 RMK AO2 =
2018-05-25 00:55 METAR KLBE 250455Z AUTO 00000KT 10SM CLR 14/13 A3013 RMK AO2 =
2018-05-25 00:35 METAR KLBE 250435Z AUTO 00000KT 10SM CLR 14/13 A3013 RMK AO2 =
2018-05-25 00:15 METAR KLBE 250415Z AUTO 00000KT 10SM CLR 14/14 A3013 RMK AO2 =
2018-05-24 23:55 METAR KLBE 250355Z AUTO 00000KT 10SM CLR 15/14 A3013 RMK AO2 =
2018-05-24 23:35 METAR KLBE 250335Z AUTO 00000KT 10SM CLR 15/13 A3014 RMK AO2 =
2018-05-24 23:15 METAR KLBE 250315Z AUTO 00000KT 10SM CLR 15/14 A3014 RMK AO2 =
2018-05-24 22:55 METAR KLBE 250255Z AUTO 00000KT 10SM CLR 15/13 A3014 RMK AO2 =
2018-05-24 22:35 METAR KLBE 250235Z AUTO 00000KT 10SM CLR 17/13 A3015 RMK AO2 =
2018-05-24 22:15 METAR KLBE 250215Z AUTO 00000KT 10SM CLR 17/13 A3015 RMK AO2 =
2018-05-24 21:45 METAR KLBE 250145Z 00000KT 10SM SKC 18/13 A3014 =
2018-05-24 20:45 METAR KLBE 250045Z 00000KT 10SM SCT150 /12 A3013 =
2018-05-24 19:45 METAR KLBE 242345Z 36005KT 10SM SCT150 25/06 A3013 =
2018-05-24 18:45 METAR KLBE 242245Z 32005KT 10SM SKC 26/09 A3014 =
2018-05-24 17:45 METAR KLBE 242145Z 32006KT 10SM SKC 27/09 A3015 =
2018-05-24 16:53 METAR KLBE 242053Z 32005KT 10SM SKC 27/10 A3016 =
2018-05-24 15:45 METAR KLBE 241945Z 33005KT 10SM SKC 26/10 A3018 =
2018-05-24 14:53 METAR KLBE 241853Z 32006KT 10SM SKC 26/10 A3020 =
2018-05-24 13:50 METAR KLBE 241750Z 01010KT 10SM SKC 25/09 A3022 =

Support USWX by starting your Amazon purchase here.